This is the latest recevied weather packets stored in our database for station/object VA2DG-13. If no packets are shown the sender has not sent any weather packets the latest 10 day(s).
| Time | Temp. | Humidity | Pressure | Rain* | Wind** | Luminosity | Snow |
|---|---|---|---|---|---|---|---|
| 1777138811 | 13.33° C | 33% | 1015.4 hPa | 0 mm | - | - | - |
| 1777138212 | 12.78° C | 33% | 1015.6 hPa | 0 mm | - | - | - |
| 1777137011 | 12.78° C | 33% | 1015.8 hPa | 0 mm | - | - | - |
| 1777136711 | 12.78° C | 32% | 1015.7 hPa | 0 mm | - | - | - |
| 1777132511 | 11.11° C | 33% | 1016.7 hPa | 0 mm | - | - | - |
| 1777131611 | 10.56° C | 34% | 1016.9 hPa | 0 mm | - | - | - |
| 1777131312 | 10.56° C | 33% | 1016.8 hPa | 0 mm | - | - | - |
| 1777127412 | 9.44° C | 35% | 1017.3 hPa | 0 mm | - | - | - |
| 1777125311 | 8.89° C | 36% | 1017.2 hPa | 0 mm | - | - | - |
| 1777125011 | 8.89° C | 36% | 1017.3 hPa | 0 mm | - | - | - |
| 1777122911 | 8.33° C | 40% | 1017.4 hPa | 0 mm | - | - | - |
| 1777121111 | 7.78° C | 46% | 1017.7 hPa | 0 mm | - | - | - |
| 1777118411 | 5.56° C | 54% | 1017.7 hPa | 0 mm | - | - | - |
| 1777117811 | 5° C | 56% | 1017.5 hPa | 0 mm | - | - | - |
| 1777114811 | 2.78° C | 64% | 1017.2 hPa | 0 mm | - | - | - |
| 1777113911 | 2.22° C | 67% | 1017 hPa | 0 mm | - | - | - |
| 1777113311 | 1.67° C | 67% | 1017 hPa | 0 mm | - | - | - |
| 1777109111 | 1.67° C | 66% | 1016.7 hPa | 0 mm | - | - | - |
| 1777108511 | 1.67° C | 66% | 1016.6 hPa | 0 mm | - | - | - |
| 1777107911 | 1.67° C | 66% | 1016.6 hPa | 0 mm | - | - | - |
| 1777106711 | 2.22° C | 65% | 1016.2 hPa | 0 mm | - | - | - |
| 1777105211 | 2.22° C | 62% | 1016.3 hPa | 0 mm | - | - | - |
| 1777104611 | 2.22° C | 61% | 1016.2 hPa | 0 mm | - | - | - |
| 1777104010 | 2.78° C | 59% | 1016.3 hPa | 0 mm | - | - | - |
| 1777102511 | 2.78° C | 58% | 1016 hPa | 0 mm | - | - | - |
* Rain latest hour (hover to see other rain measurements)
** Current wind speed in m/s (hover to see current wind gust speed)